Henrique Nogueira

Chief Scout - Fluminense
4 Apr 2027
Sunday
Process

Personality

Adaptability (14) Ambition (14) Controversy (11) Loyalty (18) Pressure (6) Professionalism (1) Sportsmanship (8) Temperament (1)

Profile

Coaching Style Democratic
License Continental C
Determination 7
Man Management 14
Motivating 14
Discipline 9
Job Satisfaction
100%
Fatigue
0%
Role Chief Scout
Wage 99.3K p/w
Contract 14.03.2029

Performance

Behaviour Good
Training Effectiveness
39%
Player Development
45%
Injury Prevention
50%
Tactical Implementation
30%

Recent Events

Assessed a player now
Attended a recruitment meeting now
Assessed a player now
Assessed a player now
Assessed a player now
Assessed a player 7d ago
Assessed a player 7d ago
Assessed a player 7d ago

Currently Monitoring

173
Player Club Status Ability Confidence Watched Last Observed Latest Vote
Carlos Moreno Pachuca Active 142 / 132 40% 5 03.04.2027 -
Simone Scuffet Pisa Active 119 / 135 40% 3 03.04.2027 -
Lorenzo Montipò Venezia Active 131 / 146 40% 4 03.04.2027 -
Sam Tickle Wigan Athletic Active 121 / 132 40% 5 02.04.2027 -
Franco Petroli Olympique de Marseille Active 131 / 125 40% 8 02.04.2027 -
Michele Cerofolini Bari Active 124 / 135 40% 2 02.04.2027 -
José Manuel López Palmeiras Active 129 / 131 40% 3 01.04.2027 -
Yanis Begraoui Estoril Praia Active 144 / 140 40% 3 01.04.2027 -
Viktor Johansson Stoke City Active 144 / 143 40% 5 01.04.2027 -
Hugo Souza Corinthians Active 135 / 139 40% 11 01.04.2027 -
Wesley Saïd RC Lens Active 123 / 125 40% 2 01.04.2027 -
Giovanni Simeone Torino Active 126 / 131 40% 3 01.04.2027 -
Nemanja Radonjić Crvena Zvezda Active 135 / 121 40% 2 01.04.2027 -
Axel Openda KV Oostende Active 142 / 133 40% 1 01.04.2027 -
Axel Alderweireld KV Oostende Active 139 / 144 40% 4 29.03.2027 -
Wladimiro Falcone Lecce Active 150 / 139 40% 9 29.03.2027 -
Edoardo Corvi Parma Active 136 / 123 40% 5 29.03.2027 -
Michael Cooper Sheffield United Active 136 / 131 40% 8 28.03.2027 -
Radek Vítek Middlesbrough Active 128 / 147 40% 12 28.03.2027 -
Juan Soriano Académico de Viseu Active 135 / 124 40% 10 27.03.2027 -
Gabriel Batista Botafogo Active 139 / 127 40% 11 26.03.2027 -
Jean Butez Como Active 149 / 134 40% 6 26.03.2027 -
Balázs Tóth Blackburn Rovers Active 117 / 134 40% 7 25.03.2027 -
Lorenzo Palmisani Frosinone Active 120 / 129 40% 1 25.03.2027 -
Iñaki Peña Panathinaikos Active 134 / 133 40% 2 24.03.2027 -
Bilal Bayazıt Kayserispor Active 132 / 133 40% 3 24.03.2027 -
Luis Malagón Club America Active 135 / 135 40% 9 23.03.2027 -
Jacob Widell Zetterström Derby County Active 128 / 121 40% 5 23.03.2027 -
Patrick Sequeira Casa Pia Active 130 / 118 40% 8 22.03.2027 -
Carl Rushworth Coventry City Active 145 / 134 40% 15 20.03.2027 -
Bernardo Fontes Braga Active 129 / 123 40% 9 20.03.2027 -
Gabriel Brazão Santos Active 140 / 132 40% 9 20.03.2027 -
Dany Mota Monza Active 127 / 130 40% 2 19.03.2027 -
Alexey Miranchuk Newcastle United Active 144 / 133 40% 2 19.03.2027 -
Timothy Kompany Mouscron Active 129 / 121 40% 1 19.03.2027 -
Luca Orellano Monterrey Active 134 / 130 40% 3 18.03.2027 -
Cesar Corona Veracruz Active 145 / 134 40% 7 18.03.2027 -
Iqraam Rayners Mamelodi Sundowns Active 141 / 127 40% 1 18.03.2027 -
Antonio Gomis Vizela Active 110 / 123 40% 2 16.03.2027 -
Stefano Gori Union Brescia Active 113 / 123 40% 1 16.03.2027 -
Facundo Torres Shakhtar Active 132 / 134 40% 2 15.03.2027 -
Sebastián Córdova Pumas UNAM Active 139 / 129 40% 1 15.03.2027 -
Efraín Álvarez Guadalajara Active 131 / 125 40% 1 15.03.2027 -
Carlos Acevedo Santos Laguna Active 136 / 126 40% 8 13.03.2027 -
Elia Caprile Cagliari Active 133 / 148 40% 4 13.03.2027 -
Michy Fellaini KV Oostende Active 138 / 140 40% 4 12.03.2027 -
Anthony Patterson Wrexham Active 139 / 122 40% 6 12.03.2027 -
Christian Kouamé Aris Thessaloniki Active 139 / 130 40% 2 12.03.2027 -
Nicolas Schmid Portsmouth Active 116 / 130 40% 2 12.03.2027 -
Cristian Shpendi Cesena Active 144 / 140 40% 1 12.03.2027 -
Cezary Miszta Rio Ave Active 125 / 133 40% 11 10.03.2027 -
Dmytro Riznyk Shakhtar Active 139 / 130 40% 3 08.03.2027 -
Ruslan Neshcheret Dynamo Kyiv Active 131 / 126 40% 1 08.03.2027 -
Tijjani Noslin Lazio Active 132 / 138 40% 2 07.03.2027 -
Abdullah Juma Al Ahli Active 132 / 125 40% 2 07.03.2027 -
Clayton Olympiacos Active 145 / 130 40% 1 07.03.2027 -
Jakub Stolarczyk Leicester City Active 138 / 135 40% 7 05.03.2027 -
João Palhinha Benfica Active 162 / 153 40% 3 28.02.2027 -
Soufiane Rahimi Al Ain Active 148 / 127 40% 2 28.02.2027 -
Beau Reus Waasland-Beveren Active 136 / 121 40% 2 24.02.2027 -
Aral Şimşir Trabzonspor Active 133 / 139 40% 2 24.02.2027 -
Agustín Palavecino Cruz Azul Active 140 / 129 40% 2 24.02.2027 -
Haissem Hassan Bloemfontein Celtic Active 148 / 125 40% 2 24.02.2027 -
Dávid Strelec Middlesbrough Active 136 / 130 40% 2 19.02.2027 -
Hwang In-Beom Porto Active 137 / 152 40% 2 17.02.2027 -
Christian Walton Ipswich Town Active 134 / 123 40% 7 13.02.2027 -
Marko Ilić KV Kortrijk Active 134 / 133 40% 3 13.02.2027 -
Jonathan Rowe Bologna Active 141 / 130 40% 1 12.02.2027 -
Yuki Kakita FC Copenhagen Active 138 / 139 40% 4 08.02.2027 -
Rafiu Durosinmi Racing Genk Active 136 / 138 40% 2 08.02.2027 -
Manfred Ugalde Spartak Moscow Active 131 / 141 40% 1 08.02.2027 -
Mandla Jali SuperSport United Active 111 / 121 40% 1 08.02.2027 -
Lucas Cañizares Tondela Active 100 / 117 40% 1 08.02.2027 -
Manuel Baldé Wadi Degla Active 95 / 101 40% 1 08.02.2027 -
Felipe Augusto Zenit Active 131 / 133 40% 1 05.02.2027 -
Arijanet Murić Sassuolo Active 151 / 143 40% 2 02.02.2027 -
Nathan Trott Cardiff City Active 113 / 124 40% 3 27.01.2027 -
Dean Henderson Crystal Palace Active 140 / 145 40% 3 26.01.2027 -
Jamie Cumming Oxford United Active 113 / 128 40% 2 23.01.2027 -
Luka Jović AEK Active 142 / 144 40% 4 23.01.2027 -
Nelson Insfrán Charleroi Active 115 / 131 40% 2 22.01.2027 -
Léo Jardim Vasco da Gama Active 144 / 132 40% 6 20.01.2027 -
Isidro Pitta Bragantino Active 123 / 126 40% 1 18.01.2027 -
Carlos Vinícius Grêmio Active 133 / 139 40% 7 14.01.2027 -
Raúl García Osasuna Active 146 / 130 40% 1 13.01.2027 -
Akor Adams Venezia Active 134 / 133 40% 1 13.01.2027 -
Marcelo Allende Mamelodi Sundowns Active 129 / 134 40% 1 10.01.2027 -
Jesús Ricardo Angulo Toluca Active 137 / 128 40% 1 10.01.2027 -
Max O'Leary West Bromwich Albion Active 112 / 131 40% 5 05.01.2027 -
João Carvalho Estoril Praia Active 128 / 122 40% 1 04.01.2027 -
Andreas Pereira Palmeiras Active 133 / 136 40% 1 04.01.2027 -
Bertrand Traoré Sunderland Active 139 / 140 40% 1 03.01.2027 -
Moussa Dembélé Al-Ettifaq Active 122 / 125 40% 1 03.01.2027 -
Gérson Cruzeiro Active 133 / 137 40% 1 27.12.2026 -
Renato Solís Lech Active 122 / 116 40% 1 27.12.2026 -
Ángel Correa River Plate Active 150 / 147 40% 4 22.12.2026 -
Karim Konaté Red Bull Salzburg Active 133 / 145 40% 1 22.12.2026 -
Josh Keeley Luton Town Active 109 / 130 40% 1 18.12.2026 -
Cleiton Bragantino Active 121 / 121 40% 1 17.12.2026 -
Diego Rossi Monterrey Active 129 / 138 40% 5 13.12.2026 -
Aarón Escandell Oviedo Active 125 / 132 40% 3 10.12.2026 -
Tomás Marchiori Vélez Active 122 / 128 40% 1 07.12.2026 -
Lazar Carević Famalicao Active 116 / 119 40% 2 06.12.2026 -
Antonio Sivera Alavés Active 143 / 153 40% 1 03.12.2026 -
Leo Román Deportivo La Coruña Active 154 / 136 40% 2 02.12.2026 -
Jonmi Magunagoitia Eibar Active 116 / 114 40% 2 02.12.2026 -
Marvin Keller Young Boys Rejected 136 / 137 67% 1 01.12.2026 -
Israel Reyes Club America Rejected 137 / 137 68% 1 01.12.2026 -
Ander Cantero Burgos Active 137 / 117 40% 1 01.12.2026 -
Ignacio de Arruabarrena Arouca Active 116 / 121 40% 1 01.12.2026 -
Tomáš Chorý Slavia Prague Active 131 / 148 40% 6 29.11.2026 -
Nicolò Tresoldi Club Brugge Active 121 / 126 40% 1 29.11.2026 -
Renan Lodi Atlético Mineiro Active 146 / 143 40% 1 28.11.2026 -
Mahmoud Al Bloushi Al Shabab Active 138 / 158 40% 3 26.11.2026 -
Jon Guridi Sevilla Active 134 / 136 40% 1 26.11.2026 -
Javi Sánchez Arouca Active 129 / 131 40% 1 26.11.2026 -
Afimico Pululu Al-Hazem Active 117 / 118 40% 2 23.11.2026 -
Víctor Guzmán Monterrey Active 139 / 135 40% 1 22.11.2026 -
Jason Januzaj Mouscron Active 134 / 152 40% 3 20.11.2026 -
Carlos Marín Albacete Active 125 / 120 40% 1 20.11.2026 -
Henrique Araújo Casa Pia Active 121 / 127 40% 2 18.11.2026 -
Zé Leite Oliveirense Active 130 / 112 40% 1 18.11.2026 -
Leonardo Lelo Braga Active 128 / 134 40% 2 17.11.2026 -
Gustaf Lagerbielke Braga Active 126 / 143 40% 1 17.11.2026 -
João Costa Santa Clara Active 98 / 116 40% 1 14.11.2026 -
Gorka Guruzeta Athletic Bilbao Active 145 / 144 40% 2 12.11.2026 -
Ferreirinha Sport Recife Active 141 / 127 40% 2 10.11.2026 -
Arthur Cabral Botafogo Active 122 / 122 40% 1 09.11.2026 -
Dani Raba Valencia Active 126 / 140 40% 2 05.11.2026 -
Jean-Luc Morin Tours Active 136 / 133 40% 1 05.11.2026 -
Álex Remiro Real Sociedad Active 145 / 141 40% 1 05.11.2026 -
Kein Sato FC Tokyo Active 142 / 120 40% 2 31.10.2026 -
Oli McBurnie Hull City Active 120 / 144 40% 5 28.10.2026 -
Exequiel Zeballos Boca Juniors Active 132 / 137 40% 3 27.10.2026 -
Takuma Asano Sanfrecce Hiroshima Active 135 / 123 40% 3 22.10.2026 -
Youssef En-Nesyri Al-Ittihad Active 131 / 132 40% 3 18.10.2026 -
Che Adams Torino Active 145 / 134 40% 1 14.10.2026 -
Mojmír Chytil Besiktas Active 133 / 142 40% 1 13.10.2026 -
Zeno Debast Sporting CP Active 153 / 142 40% 1 11.10.2026 -
Veljko Birmančević Ferencvaros Active 121 / 133 40% 3 08.10.2026 -
Sebastián Meza Huracán Active 119 / 120 40% 2 06.10.2026 -
Sam Surridge Nashville SC Active 123 / 125 40% 1 04.10.2026 -
Nehuén Pérez Porto Active 153 / 130 40% 1 30.09.2026 -
Germán Berterame Inter Miami CF Active 138 / 138 40% 2 27.09.2026 -
Leandro Trossard Besiktas Active 169 / 145 40% 1 27.09.2026 -
Rafael Santos Borré River Plate Active 125 / 129 40% 2 26.09.2026 -
Leo Ceara Kashima Antlers Active 138 / 127 40% 2 25.09.2026 -
Myrto Uzuni Austin FC Active 140 / 135 40% 1 25.09.2026 -
Ezequiel Centurión River Plate Active 126 / 128 40% 1 22.09.2026 -
Matt Freese New York City Active 127 / 122 40% 1 21.09.2026 -
Samuel Soares Benfica Active 112 / 137 40% 1 20.09.2026 -
Kerem Aktürkoğlu Fenerbahce Active 134 / 134 40% 2 19.09.2026 -
Zack Steffen Colorado Rapids Active 124 / 125 40% 2 18.09.2026 -
Kepa Arrizabalaga Arsenal Active 136 / 144 40% 1 18.09.2026 -
Jonas Wind Braga Active 118 / 127 40% 1 17.09.2026 -
Nicolás Fernández Mercau New York City Active 143 / 130 40% 1 15.09.2026 -
Arthur Palmeiras Active 140 / 145 40% 1 15.09.2026 -
Hwang Hee-Chan Wolverhampton Active 117 / 132 40% 3 12.09.2026 -
Petar Musa FC Dallas Active 127 / 141 40% 2 11.09.2026 -
Grégoire Coudert Burnley Active 112 / 118 40% 1 10.09.2026 -
Ricardo Horta Braga Active 151 / 142 40% 5 05.09.2026 -
Francisco Moura Porto Active 119 / 129 40% 1 04.09.2026 -
Richard Ríos Benfica Active 147 / 146 40% 1 04.09.2026 -
Gonzalo Plata Dinamo Moscow Active 119 / 142 40% 1 31.08.2026 -
Martín Ojeda Orlando City Active 122 / 133 40% 1 24.08.2026 -
Yuma Suzuki Kashima Antlers Active 120 / 144 40% 1 21.08.2026 -
Mateo Cassierra Atlético Mineiro Rejected 123 / 135 40% 1 16.08.2026 -
Fotis Ioannidis Sporting CP Active 122 / 131 40% 1 16.08.2026 -
Denis Bouanga Los Angeles Football Club Active 124 / 128 40% 1 11.08.2026 -
Bastien Meupiyou Alverca Active 134 / 125 40% 1 07.08.2026 -
João Muniz Sporting CP Active 111 / 129 40% 1 07.08.2026 -
Robin Roefs Sunderland Active 125 / 138 40% 1 05.08.2026 -
Pablo Campos Levante Active 120 / 136 40% 1 01.08.2026 -